createdAt,value
2023-03-27T00:06:42.033Z,6.00
2023-03-27T00:16:46.425Z,6.00
2023-03-27T00:26:52.215Z,6.00
2023-03-27T00:36:56.153Z,6.00
2023-03-27T00:47:03.044Z,5.90
2023-03-27T00:57:11.781Z,5.90
2023-03-27T01:07:17.954Z,5.90
2023-03-27T01:17:42.067Z,6.00
2023-03-27T01:28:26.507Z,6.00
2023-03-27T01:39:12.101Z,6.00
2023-03-27T01:49:18.684Z,5.90
2023-03-27T01:59:27.703Z,5.90
2023-03-27T02:09:35.832Z,5.90
2023-03-27T02:19:49.079Z,5.80
2023-03-27T02:30:03.751Z,5.70
2023-03-27T02:40:19.064Z,5.60
2023-03-27T02:50:31.567Z,5.70
2023-03-27T03:00:49.297Z,5.70
2023-03-27T03:11:15.956Z,5.80
2023-03-27T03:21:21.456Z,5.80
2023-03-27T03:31:25.435Z,5.80
2023-03-27T03:41:32.866Z,5.90
2023-03-27T03:51:38.961Z,5.90
2023-03-27T04:01:46.135Z,5.90
2023-03-27T04:11:50.283Z,5.90
2023-03-27T04:22:18.407Z,5.80
2023-03-27T04:32:22.141Z,5.80
2023-03-27T04:42:50.410Z,5.80
2023-03-27T04:52:58.788Z,5.80
2023-03-27T05:03:06.347Z,5.80
2023-03-27T05:13:20.440Z,5.90
2023-03-27T05:23:25.804Z,6.00
2023-03-27T05:33:30.081Z,6.10
2023-03-27T05:43:35.330Z,6.20
2023-03-27T05:53:39.754Z,6.20
2023-03-27T06:04:09.349Z,6.30
2023-03-27T06:14:38.482Z,6.30
2023-03-27T06:25:02.321Z,6.30
2023-03-27T06:35:08.326Z,6.30
2023-03-27T06:45:32.584Z,6.40
2023-03-27T06:56:11.446Z,6.50
2023-03-27T07:06:37.838Z,6.40
2023-03-27T07:16:46.925Z,6.50
2023-03-27T07:26:52.701Z,6.60
2023-03-27T07:37:04.595Z,6.90
2023-03-27T07:47:11.115Z,7.10
2023-03-27T07:57:15.841Z,7.00
2023-03-27T08:07:27.092Z,5.80
2023-03-27T08:17:36.137Z,7.30
2023-03-27T08:27:41.875Z,7.20
2023-03-27T08:37:45.916Z,6.90
2023-03-27T08:48:22.664Z,6.80
2023-03-27T08:58:26.583Z,6.80
2023-03-27T09:08:54.234Z,6.80
2023-03-27T09:19:06.374Z,7.10
2023-03-27T09:29:22.252Z,7.10
2023-03-27T09:39:51.621Z,6.90
2023-03-27T09:50:27.406Z,6.60
2023-03-27T10:00:40.635Z,6.50
2023-03-27T10:10:46.219Z,6.20
2023-03-27T10:21:25.458Z,5.90
2023-03-27T10:31:34.227Z,5.80
2023-03-27T10:41:49.861Z,5.70
2023-03-27T10:52:05.721Z,5.40
2023-03-27T11:02:34.076Z,5.10
2023-03-27T11:12:44.354Z,5.00
2023-03-27T11:22:55.949Z,5.00
2023-03-27T11:33:43.734Z,4.70
2023-03-27T11:43:48.666Z,4.30
2023-03-27T11:54:38.562Z,4.00
2023-03-27T12:04:51.894Z,3.70
2023-03-27T12:15:48.480Z,3.40
2023-03-27T12:26:11.844Z,3.00
2023-03-27T12:36:48.315Z,2.70
2023-03-27T12:47:15.420Z,2.60
2023-03-27T12:57:25.080Z,2.30
2023-03-27T13:07:38.268Z,2.30
2023-03-27T13:17:59.775Z,2.20
2023-03-27T13:28:31.491Z,2.10
2023-03-27T13:39:24.137Z,2.10
2023-03-27T13:50:16.762Z,2.10
2023-03-27T14:00:44.078Z,2.10
2023-03-27T14:11:16.099Z,2.10
2023-03-27T14:21:37.903Z,2.00
2023-03-27T14:31:46.227Z,2.10
2023-03-27T14:42:18.353Z,2.30
2023-03-27T14:52:33.331Z,2.20
2023-03-27T15:03:08.560Z,2.20
2023-03-27T15:13:13.160Z,2.20
2023-03-27T15:23:28.529Z,2.20
2023-03-27T15:33:37.020Z,2.00
2023-03-27T15:43:42.068Z,2.00
2023-03-27T15:53:48.417Z,1.90
2023-03-27T16:03:56.231Z,1.90
2023-03-27T16:14:02.095Z,1.90
2023-03-27T16:24:08.103Z,1.90
2023-03-27T16:34:22.466Z,1.80
2023-03-27T16:44:28.643Z,1.70
2023-03-27T16:54:32.242Z,1.70
2023-03-27T17:04:37.876Z,1.60
2023-03-27T17:14:41.642Z,1.50
2023-03-27T17:24:55.930Z,1.30
2023-03-27T17:35:00.896Z,1.20
2023-03-27T17:45:07.711Z,1.10
2023-03-27T17:55:11.747Z,1.00
2023-03-27T18:05:18.299Z,1.00
2023-03-27T18:15:22.024Z,0.90
2023-03-27T18:25:27.184Z,0.80
2023-03-27T18:35:32.663Z,0.80
2023-03-27T18:45:37.770Z,0.80
2023-03-27T18:55:41.573Z,0.70
2023-03-27T19:05:46.934Z,0.50
2023-03-27T19:15:50.679Z,0.30
2023-03-27T19:26:17.309Z,0.30
2023-03-27T19:36:22.001Z,0.20
2023-03-27T19:46:28.574Z,0.10
2023-03-27T19:56:33.223Z,-0.10
2023-03-27T20:06:38.698Z,-0.20
2023-03-27T20:16:42.487Z,-0.40
2023-03-27T20:26:48.322Z,-0.70
2023-03-27T20:36:59.071Z,-0.90
2023-03-27T20:47:19.215Z,-1.00
2023-03-27T20:57:24.458Z,-1.00
2023-03-27T21:07:29.568Z,-1.00
2023-03-27T21:17:33.500Z,-1.00
2023-03-27T21:27:39.461Z,-1.00
2023-03-27T21:37:43.342Z,-1.10
2023-03-27T21:47:51.029Z,-1.20
2023-03-27T21:57:54.568Z,-1.40
2023-03-27T22:07:59.418Z,-1.60
2023-03-27T22:18:03.186Z,-1.80
2023-03-27T22:28:08.409Z,-1.90
2023-03-27T22:38:12.327Z,-2.20
2023-03-27T22:48:17.658Z,-2.40
2023-03-27T22:58:21.852Z,-2.70
2023-03-27T23:08:28.672Z,-3.00
2023-03-27T23:18:32.505Z,-3.40
2023-03-27T23:28:40.988Z,-3.60
2023-03-27T23:38:45.005Z,-3.70
2023-03-27T23:48:50.161Z,-4.00
2023-03-27T23:58:54.024Z,-4.30
